Time,TemperatureF,DewpointF,PressureIn,WindDirection,WindDirectionDegrees,WindSpeedMPH,WindSpeedGustMPH,Humidity,HourlyPrecipIn,Conditions,Clouds,dailyrainin,SolarRadiationWatts/m^2,SoftwareType,DateUTC
2013-05-27 00:08:00,53.7,52.0,30.23,WSW,250,0.0,0.0,93,0.00,,,0.00,0,weatherlink.com 1.10,2013-05-27 04:08:00,
2013-05-27 00:23:00,53.4,52.0,30.23,WSW,250,0.0,0.0,94,0.00,,,0.00,0,weatherlink.com 1.10,2013-05-27 04:23:00,
2013-05-27 00:38:00,53.2,52.0,30.23,WSW,250,0.0,0.0,94,0.00,,,0.00,0,weatherlink.com 1.10,2013-05-27 04:38:00,
2013-05-27 00:53:00,52.9,51.0,30.23,WSW,250,0.0,0.0,94,0.00,,,0.00,0,weatherlink.com 1.10,2013-05-27 04:53:00,
2013-05-27 01:09:00,52.4,51.0,30.23,WSW,250,0.0,0.0,94,0.00,,,0.00,0,weatherlink.com 1.10,2013-05-27 05:09:00,
2013-05-27 01:24:00,52.4,51.0,30.24,WSW,250,0.0,0.0,95,0.00,,,0.00,0,weatherlink.com 1.10,2013-05-27 05:24:00,
2013-05-27 01:39:00,52.1,51.0,30.24,WSW,250,0.0,0.0,94,0.00,,,0.00,0,weatherlink.com 1.10,2013-05-27 05:39:00,
2013-05-27 01:54:00,52.0,50.0,30.25,WSW,250,0.0,0.0,94,0.00,,,0.00,0,weatherlink.com 1.10,2013-05-27 05:54:00,
2013-05-27 02:09:00,51.6,50.0,30.24,WSW,250,0.0,0.0,94,0.00,,,0.00,0,weatherlink.com 1.10,2013-05-27 06:09:00,
2013-05-27 02:24:00,51.3,50.0,30.24,WSW,250,0.0,0.0,95,0.00,,,0.00,0,weatherlink.com 1.10,2013-05-27 06:24:00,
2013-05-27 02:39:00,51.1,50.0,30.25,WSW,250,0.0,0.0,95,0.00,,,0.00,0,weatherlink.com 1.10,2013-05-27 06:39:00,
2013-05-27 02:54:00,50.9,50.0,30.24,WSW,250,0.0,0.0,95,0.00,,,0.00,0,weatherlink.com 1.10,2013-05-27 06:54:00,
2013-05-27 03:09:00,50.8,50.0,30.24,WSW,250,0.0,0.0,95,0.00,,,0.00,0,weatherlink.com 1.10,2013-05-27 07:09:00,
2013-05-27 03:24:00,50.8,50.0,30.24,WSW,250,0.0,0.0,95,0.00,,,0.00,0,weatherlink.com 1.10,2013-05-27 07:24:00,
2013-05-27 03:39:00,50.5,49.0,30.23,WSW,250,0.0,0.0,95,0.00,,,0.00,0,weatherlink.com 1.10,2013-05-27 07:39:00,
2013-05-27 03:54:00,50.3,49.0,30.24,WSW,250,0.0,0.0,95,0.00,,,0.00,0,weatherlink.com 1.10,2013-05-27 07:54:00,
2013-05-27 04:09:00,50.0,49.0,30.24,WSW,250,0.0,0.0,95,0.00,,,0.00,0,weatherlink.com 1.10,2013-05-27 08:09:00,
2013-05-27 04:24:00,49.9,49.0,30.24,WSW,250,0.0,0.0,95,0.00,,,0.00,0,weatherlink.com 1.10,2013-05-27 08:24:00,
2013-05-27 04:39:00,49.7,48.0,30.24,WSW,250,0.0,0.0,95,0.00,,,0.00,0,weatherlink.com 1.10,2013-05-27 08:39:00,
2013-05-27 04:54:00,49.6,49.0,30.24,WSW,250,0.0,0.0,96,0.00,,,0.00,0,weatherlink.com 1.10,2013-05-27 08:54:00,
2013-05-27 05:09:00,49.6,49.0,30.24,WSW,250,0.0,0.0,96,0.00,,,0.00,0,weatherlink.com 1.10,2013-05-27 09:09:00,
2013-05-27 05:24:00,49.5,48.0,30.25,WSW,250,0.0,0.0,96,0.00,,,0.00,0,weatherlink.com 1.10,2013-05-27 09:24:00,
2013-05-27 05:39:00,49.3,48.0,30.25,WSW,250,0.0,0.0,96,0.00,,,0.00,0,weatherlink.com 1.10,2013-05-27 09:39:00,
2013-05-27 05:54:00,49.2,48.0,30.26,WSW,250,0.0,0.0,96,0.00,,,0.00,0,weatherlink.com 1.10,2013-05-27 09:54:00,
2013-05-27 06:09:00,49.1,48.0,30.27,WSW,250,0.0,0.0,96,0.00,,,0.00,5,weatherlink.com 1.10,2013-05-27 10:09:00,
2013-05-27 06:24:00,49.2,48.0,30.27,WSW,250,0.0,0.0,96,0.00,,,0.00,12,weatherlink.com 1.10,2013-05-27 10:24:00,
2013-05-27 06:39:00,49.3,48.0,30.27,WSW,250,0.0,0.0,96,0.00,,,0.00,23,weatherlink.com 1.10,2013-05-27 10:39:00,
2013-05-27 06:54:00,49.8,49.0,30.28,WSW,250,0.0,0.0,96,0.00,,,0.00,40,weatherlink.com 1.10,2013-05-27 10:54:00,
2013-05-27 07:09:00,51.3,51.0,30.29,WSW,250,0.0,0.0,97,0.00,,,0.00,100,weatherlink.com 1.10,2013-05-27 11:09:00,
2013-05-27 07:24:00,53.7,52.0,30.29,WSW,250,0.0,0.0,95,0.00,,,0.00,176,weatherlink.com 1.10,2013-05-27 11:24:00,
2013-05-27 07:39:00,55.3,53.0,30.29,WSW,250,0.0,0.0,92,0.00,,,0.00,234,weatherlink.com 1.10,2013-05-27 11:39:00,
2013-05-27 07:54:00,56.6,54.0,30.29,WSW,250,0.0,0.0,92,0.00,,,0.00,178,weatherlink.com 1.10,2013-05-27 11:54:00,
2013-05-27 08:09:00,58.0,55.0,30.29,WSW,250,0.0,0.0,90,0.00,,,0.00,346,weatherlink.com 1.10,2013-05-27 12:09:00,
2013-05-27 08:24:00,60.6,56.0,30.29,NE,47,0.0,0.0,86,0.00,,,0.00,359,weatherlink.com 1.10,2013-05-27 12:24:00,
2013-05-27 08:40:00,62.8,57.0,30.29,WNW,286,1.0,3.0,81,0.00,,,0.00,343,weatherlink.com 1.10,2013-05-27 12:40:00,
2013-05-27 08:55:00,64.6,55.0,30.29,SSE,159,4.0,5.0,72,0.00,,,0.00,401,weatherlink.com 1.10,2013-05-27 12:55:00,
2013-05-27 09:10:00,65.4,55.0,30.29,West,260,6.0,6.0,70,0.00,,,0.00,504,weatherlink.com 1.10,2013-05-27 13:10:00,
2013-05-27 09:25:00,66.6,56.0,30.29,South,169,4.0,5.0,68,0.00,,,0.00,250,weatherlink.com 1.10,2013-05-27 13:25:00,
2013-05-27 09:40:00,67.3,56.0,30.29,SSE,148,0.0,3.0,68,0.00,,,0.00,336,weatherlink.com 1.10,2013-05-27 13:40:00,
2013-05-27 09:55:00,67.6,56.0,30.29,WSW,239,4.0,5.0,67,0.00,,,0.00,429,weatherlink.com 1.10,2013-05-27 13:55:00,
2013-05-27 10:10:00,68.4,57.0,30.29,WSW,244,1.0,5.0,66,0.00,,,0.00,413,weatherlink.com 1.10,2013-05-27 14:10:00,
2013-05-27 10:25:00,69.6,56.0,30.28,WSW,242,2.0,7.0,62,0.00,,,0.00,468,weatherlink.com 1.10,2013-05-27 14:25:00,
2013-05-27 10:40:00,71.0,57.0,30.28,SSW,192,0.0,5.0,62,0.00,,,0.00,575,weatherlink.com 1.10,2013-05-27 14:40:00,
2013-05-27 10:55:00,71.4,55.0,30.29,SSE,165,4.0,9.0,57,0.00,,,0.00,508,weatherlink.com 1.10,2013-05-27 14:55:00,
2013-05-27 11:10:00,72.2,58.0,30.28,SSW,194,1.0,5.0,61,0.00,,,0.00,552,weatherlink.com 1.10,2013-05-27 15:10:00,
2013-05-27 11:25:00,73.0,56.0,30.28,WSW,242,0.0,7.0,56,0.00,,,0.00,682,weatherlink.com 1.10,2013-05-27 15:25:00,
2013-05-27 11:40:00,73.5,55.0,30.29,East,86,3.0,7.0,53,0.00,,,0.00,817,weatherlink.com 1.10,2013-05-27 15:40:00,
2013-05-27 11:55:00,74.2,55.0,30.28,ESE,119,1.0,4.0,52,0.00,,,0.00,643,weatherlink.com 1.10,2013-05-27 15:55:00,
2013-05-27 12:10:00,74.7,55.0,30.27,SE,130,1.0,8.0,50,0.00,,,0.00,912,weatherlink.com 1.10,2013-05-27 16:10:00,
2013-05-27 12:25:00,75.5,54.0,30.27,SE,141,2.0,7.0,47,0.00,,,0.00,923,weatherlink.com 1.10,2013-05-27 16:25:00,
2013-05-27 12:40:00,76.1,53.0,30.26,WSW,249,5.0,12.0,45,0.00,,,0.00,939,weatherlink.com 1.10,2013-05-27 16:40:00,
2013-05-27 12:55:00,76.5,52.0,30.26,South,180,3.0,8.0,42,0.00,,,0.00,944,weatherlink.com 1.10,2013-05-27 16:55:00,
2013-05-27 13:10:00,76.7,54.0,30.25,NNW,336,2.0,6.0,45,0.00,,,0.00,949,weatherlink.com 1.10,2013-05-27 17:10:00,
2013-05-27 13:25:00,77.3,52.0,30.25,SSE,162,1.0,8.0,41,0.00,,,0.00,947,weatherlink.com 1.10,2013-05-27 17:25:00,
2013-05-27 13:41:00,77.6,51.0,30.25,West,273,0.0,7.0,39,0.00,,,0.00,942,weatherlink.com 1.10,2013-05-27 17:41:00,
2013-05-27 13:56:00,77.8,49.0,30.25,SSE,150,3.0,6.0,37,0.00,,,0.00,947,weatherlink.com 1.10,2013-05-27 17:56:00,
2013-05-27 14:11:00,78.5,54.0,30.25,SSE,165,4.0,8.0,43,0.00,,,0.00,926,weatherlink.com 1.10,2013-05-27 18:11:00,
2013-05-27 14:26:00,79.0,51.0,30.24,SSW,200,2.0,6.0,37,0.00,,,0.00,886,weatherlink.com 1.10,2013-05-27 18:26:00,
2013-05-27 14:41:00,78.7,50.0,30.24,WSW,244,5.0,9.0,37,0.00,,,0.00,886,weatherlink.com 1.10,2013-05-27 18:41:00,
2013-05-27 14:56:00,78.9,52.0,30.23,SW,224,0.0,10.0,39,0.00,,,0.00,875,weatherlink.com 1.10,2013-05-27 18:56:00,
2013-05-27 15:11:00,79.4,49.0,30.23,SSW,194,2.0,11.0,35,0.00,,,0.00,849,weatherlink.com 1.10,2013-05-27 19:11:00,
2013-05-27 15:26:00,79.3,50.0,30.22,NE,34,3.0,8.0,36,0.00,,,0.00,817,weatherlink.com 1.10,2013-05-27 19:26:00,
2013-05-27 15:41:00,79.9,51.0,30.22,WSW,238,6.0,8.0,37,0.00,,,0.00,788,weatherlink.com 1.10,2013-05-27 19:41:00,
2013-05-27 15:56:00,79.8,51.0,30.21,ENE,72,1.0,7.0,37,0.00,,,0.00,751,weatherlink.com 1.10,2013-05-27 19:56:00,
2013-05-27 16:11:00,80.2,50.0,30.21,WSW,241,2.0,9.0,35,0.00,,,0.00,710,weatherlink.com 1.10,2013-05-27 20:11:00,
2013-05-27 16:26:00,80.5,52.0,30.19,South,177,2.0,6.0,37,0.00,,,0.00,675,weatherlink.com 1.10,2013-05-27 20:26:00,
2013-05-27 16:41:00,81.2,52.0,30.19,SSE,167,4.0,5.0,36,0.00,,,0.00,628,weatherlink.com 1.10,2013-05-27 20:41:00,
2013-05-27 16:56:00,80.4,51.0,30.19,WSW,240,2.0,8.0,36,0.00,,,0.00,563,weatherlink.com 1.10,2013-05-27 20:56:00,
2013-05-27 17:12:00,80.4,52.0,30.19,NE,42,2.0,5.0,37,0.00,,,0.00,531,weatherlink.com 1.10,2013-05-27 21:12:00,
2013-05-27 17:26:00,80.2,51.0,30.19,SSE,147,0.0,5.0,36,0.00,,,0.00,476,weatherlink.com 1.10,2013-05-27 21:26:00,
2013-05-27 17:41:00,80.2,53.0,30.18,SW,215,1.0,9.0,39,0.00,,,0.00,425,weatherlink.com 1.10,2013-05-27 21:41:00,
2013-05-27 17:56:00,79.7,52.0,30.18,East,82,0.0,7.0,38,0.00,,,0.00,364,weatherlink.com 1.10,2013-05-27 21:56:00,
2013-05-27 18:11:00,79.7,50.0,30.18,SSW,193,2.0,7.0,36,0.00,,,0.00,343,weatherlink.com 1.10,2013-05-27 22:11:00,
2013-05-27 18:26:00,79.3,52.0,30.18,SSE,153,0.0,3.0,39,0.00,,,0.00,102,weatherlink.com 1.10,2013-05-27 22:26:00,
2013-05-27 18:41:00,78.9,51.0,30.18,West,259,0.0,4.0,38,0.00,,,0.00,65,weatherlink.com 1.10,2013-05-27 22:41:00,
2013-05-27 18:56:00,78.4,53.0,30.18,SSE,148,0.0,3.0,42,0.00,,,0.00,53,weatherlink.com 1.10,2013-05-27 22:56:00,
2013-05-27 19:11:00,77.8,53.0,30.18,SE,146,1.0,3.0,43,0.00,,,0.00,40,weatherlink.com 1.10,2013-05-27 23:11:00,
2013-05-27 19:26:00,76.9,54.0,30.19,SSE,153,0.0,2.0,45,0.00,,,0.00,35,weatherlink.com 1.10,2013-05-27 23:26:00,
2013-05-27 19:41:00,75.1,56.0,30.20,SSE,153,0.0,1.0,51,0.00,,,0.00,26,weatherlink.com 1.10,2013-05-27 23:41:00,
2013-05-27 19:56:00,73.1,58.0,30.20,SSE,153,0.0,0.0,59,0.00,,,0.00,19,weatherlink.com 1.10,2013-05-27 23:56:00,
2013-05-27 20:11:00,71.1,57.0,30.20,SSE,153,0.0,0.0,61,0.00,,,0.00,9,weatherlink.com 1.10,2013-05-28 00:11:00,
2013-05-27 20:26:00,69.6,56.0,30.19,SSE,153,0.0,0.0,63,0.00,,,0.00,0,weatherlink.com 1.10,2013-05-28 00:26:00,
2013-05-27 20:41:00,68.3,56.0,30.18,SSE,153,0.0,0.0,66,0.00,,,0.00,0,weatherlink.com 1.10,2013-05-28 00:41:00,
2013-05-27 20:56:00,67.4,56.0,30.17,SSE,153,0.0,0.0,67,0.00,,,0.00,0,weatherlink.com 1.10,2013-05-28 00:56:00,
2013-05-27 21:11:00,67.3,55.0,30.17,SSE,153,0.0,0.0,66,0.00,,,0.00,0,weatherlink.com 1.10,2013-05-28 01:11:00,
2013-05-27 21:26:00,66.6,55.0,30.17,SSE,153,0.0,0.0,67,0.00,,,0.00,0,weatherlink.com 1.10,2013-05-28 01:26:00,
2013-05-27 21:41:00,66.1,55.0,30.17,SSE,153,0.0,0.0,68,0.00,,,0.00,0,weatherlink.com 1.10,2013-05-28 01:41:00,
2013-05-27 21:56:00,65.2,56.0,30.18,SSE,153,0.0,0.0,72,0.00,,,0.00,0,weatherlink.com 1.10,2013-05-28 01:56:00,
2013-05-27 22:12:00,64.3,56.0,30.19,SSE,153,0.0,0.0,75,0.00,,,0.00,0,weatherlink.com 1.10,2013-05-28 02:12:00,
2013-05-27 22:26:00,63.5,55.0,30.20,SSE,153,0.0,0.0,75,0.00,,,0.00,0,weatherlink.com 1.10,2013-05-28 02:26:00,
2013-05-27 22:41:00,63.2,54.0,30.21,SSE,153,0.0,0.0,73,0.00,,,0.00,0,weatherlink.com 1.10,2013-05-28 02:41:00,
2013-05-27 22:56:00,65.4,54.0,30.21,SE,144,1.0,3.0,67,0.00,,,0.00,0,weatherlink.com 1.10,2013-05-28 02:56:00,
2013-05-27 23:11:00,66.8,55.0,30.22,SSE,153,0.0,2.0,67,0.00,,,0.00,0,weatherlink.com 1.10,2013-05-28 03:11:00,
2013-05-27 23:26:00,67.5,57.0,30.22,SSE,167,0.0,7.0,69,0.00,,,0.00,0,weatherlink.com 1.10,2013-05-28 03:26:00,
2013-05-27 23:41:00,67.6,57.0,30.22,ESE,114,0.0,6.0,69,0.00,,,0.00,0,weatherlink.com 1.10,2013-05-28 03:41:00,
2013-05-27 23:56:00,67.5,58.0,30.23,SSE,155,0.0,5.0,71,0.00,,,0.00,0,weatherlink.com 1.10,2013-05-28 03:56:00,